Kechi, KS (67067)

1:31 PM CDT on August 04, 2015 (GMT -0500)
Teal Cove | | Change Station
CLOSE
Current Station
Personal Weather Station
Location: Wichita, KS
Elevation: 1378 ft
Nearby Weather Stations

Elev 1378 ft 37.76 °N, 97.26 °W | Updated 10 minutes ago

Overcast
Overcast
72.9 °F
Feels Like 72.9 °F
N
0.0
Wind Variable Wind from SSE
Gusts 1.0 mph

Today
High -- | Low -- °F
--% Chance of Precip.
Yesterday
High -- | Low -- °F
Precip. -- in
6:35 AM 8:34 PM
Waning Gibbous, 75% visible
Pressure 29.96 in
Visibility 10.0 miles
Clouds Few 4900 ft
Scattered Clouds 7000 ft
Overcast 11000 ft
Dew Point 71 °F
Humidity 94%
Rainfall 0.15 in
Snow Depth Not available.
UV 3 out of 12
Pollen 5.90 out of 12
Air Quality Not available.
Flu Activity Not available.
METAR KAAO 041754Z AUTO 15003KT 10SM FEW049 SCT070 OVC110 23/21 A2999 RMK AO2 RAE54 SLP144 P0014 60014 T02280211 10267 20222 51009

More Conditions Fewer Conditions

Pressure 29.96 in
Visibility 10.0 miles
Clouds Few 4900 ft
Scattered Clouds 7000 ft
Overcast 11000 ft
Dew Point 71 °F
Humidity 94%
Rainfall 0.15 in
Snow Depth Not available.
UV 3 out of 12
Pollen 5.90 out of 12
Air Quality Not available.
Flu Activity Not available.
METAR KAAO 041754Z AUTO 15003KT 10SM FEW049 SCT070 OVC110 23/21 A2999 RMK AO2 RAE54 SLP144 P0014 60014 T02280211 10267 20222 51009

More Conditions Fewer Conditions

10-Day Weather Forecast

×

Almanac

Astronomy

Aug. 04, 2015 Rise Set
Actual Time
Civil Twilight
Nautical Twilight
Astronomical Twilight
Moon
Length of Visible Light
Length of Day
Tomorrow will be .
, % of the Moon is Illuminated

Today's Extremes

State Highs State Lows

Community

WunderPhotos

Upload Photos

1,843,937 photos uploaded!

WunderBlogs® & News

Nearby

Air Quality

  Air Quality AQ Index Pollutant
Not available.

Snow Depth

Station Depth Elevation

Earthquake Activity

City Distance Mag. Time & Date
Minimum magnitude displayed is 2.5.

Coastal Water Temperatures

Place Temperature

Stations

Nearby Weather Stations

Station Location Temp. Windchill Dew Point Humidity Wind Precip. Elev Updated Type